sensor_id;sensor_type;location;lat;lon;timestamp;temperature;humidity
60860;DHT22;46694;54.382;9.708;2023-03-03T00:01:13;3.30;99.90
60860;DHT22;46694;54.382;9.708;2023-03-03T00:03:53;3.30;99.90
60860;DHT22;46694;54.382;9.708;2023-03-03T00:06:33;3.30;99.90
60860;DHT22;46694;54.382;9.708;2023-03-03T00:09:12;3.20;99.90
60860;DHT22;46694;54.382;9.708;2023-03-03T00:11:57;3.20;99.90
60860;DHT22;46694;54.382;9.708;2023-03-03T00:14:39;3.10;99.90
60860;DHT22;46694;54.382;9.708;2023-03-03T00:17:29;3.10;99.90
60860;DHT22;46694;54.382;9.708;2023-03-03T00:20:30;3.10;99.90
60860;DHT22;46694;54.382;9.708;2023-03-03T00:26:36;3.10;99.90
60860;DHT22;46694;54.382;9.708;2023-03-03T00:29:30;3.00;99.90
60860;DHT22;46694;54.382;9.708;2023-03-03T00:32:18;3.00;99.90
60860;DHT22;46694;54.382;9.708;2023-03-03T00:35:37;3.00;99.90
60860;DHT22;46694;54.382;9.708;2023-03-03T00:38:17;2.90;99.90
60860;DHT22;46694;54.382;9.708;2023-03-03T00:40:57;2.90;99.90
60860;DHT22;46694;54.382;9.708;2023-03-03T00:43:36;2.80;99.90
60860;DHT22;46694;54.382;9.708;2023-03-03T00:46:21;2.80;99.90
60860;DHT22;46694;54.382;9.708;2023-03-03T00:49:16;2.80;99.90
60860;DHT22;46694;54.382;9.708;2023-03-03T00:52:01;2.80;99.90
60860;DHT22;46694;54.382;9.708;2023-03-03T00:54:41;2.70;99.90
60860;DHT22;46694;54.382;9.708;2023-03-03T00:57:21;2.70;99.90
60860;DHT22;46694;54.382;9.708;2023-03-03T01:00:00;2.70;99.90
60860;DHT22;46694;54.382;9.708;2023-03-03T01:02:40;2.70;99.90
60860;DHT22;46694;54.382;9.708;2023-03-03T01:05:20;2.60;99.90
60860;DHT22;46694;54.382;9.708;2023-03-03T01:08:00;2.60;99.90
60860;DHT22;46694;54.382;9.708;2023-03-03T01:10:45;2.60;99.90
60860;DHT22;46694;54.382;9.708;2023-03-03T01:13:30;2.60;99.90
60860;DHT22;46694;54.382;9.708;2023-03-03T01:16:11;2.60;99.90
60860;DHT22;46694;54.382;9.708;2023-03-03T01:18:51;2.60;99.90
60860;DHT22;46694;54.382;9.708;2023-03-03T01:21:31;2.50;99.90
60860;DHT22;46694;54.382;9.708;2023-03-03T01:24:10;2.50;99.90
60860;DHT22;46694;54.382;9.708;2023-03-03T01:26:50;2.50;99.90
60860;DHT22;46694;54.382;9.708;2023-03-03T01:29:30;2.50;99.90
60860;DHT22;46694;54.382;9.708;2023-03-03T01:32:09;2.40;99.90
60860;DHT22;46694;54.382;9.708;2023-03-03T01:34:49;2.40;99.90
60860;DHT22;46694;54.382;9.708;2023-03-03T01:38:03;2.40;99.90
60860;DHT22;46694;54.382;9.708;2023-03-03T01:40:42;2.40;99.90
60860;DHT22;46694;54.382;9.708;2023-03-03T01:43:28;2.40;99.90
60860;DHT22;46694;54.382;9.708;2023-03-03T01:49:45;2.40;99.90
60860;DHT22;46694;54.382;9.708;2023-03-03T01:52:41;2.40;99.90
60860;DHT22;46694;54.382;9.708;2023-03-03T01:55:25;2.40;99.90
60860;DHT22;46694;54.382;9.708;2023-03-03T01:58:15;2.40;99.90
60860;DHT22;46694;54.382;9.708;2023-03-03T02:01:01;2.40;99.90
60860;DHT22;46694;54.382;9.708;2023-03-03T02:03:43;2.40;99.90
60860;DHT22;46694;54.382;9.708;2023-03-03T02:06:27;2.40;99.90
60860;DHT22;46694;54.382;9.708;2023-03-03T02:09:33;2.30;99.90
60860;DHT22;46694;54.382;9.708;2023-03-03T02:15:31;2.30;99.90
60860;DHT22;46694;54.382;9.708;2023-03-03T02:18:15;2.30;99.90
60860;DHT22;46694;54.382;9.708;2023-03-03T02:21:11;2.30;99.90
60860;DHT22;46694;54.382;9.708;2023-03-03T02:24:06;2.30;99.90
60860;DHT22;46694;54.382;9.708;2023-03-03T02:26:49;2.30;99.90
60860;DHT22;46694;54.382;9.708;2023-03-03T02:29:28;2.20;99.90
60860;DHT22;46694;54.382;9.708;2023-03-03T02:32:08;2.20;99.90
60860;DHT22;46694;54.382;9.708;2023-03-03T02:34:49;2.20;99.90
60860;DHT22;46694;54.382;9.708;2023-03-03T02:37:29;2.20;99.90
60860;DHT22;46694;54.382;9.708;2023-03-03T02:40:10;2.20;99.90
60860;DHT22;46694;54.382;9.708;2023-03-03T02:42:51;2.20;99.90
60860;DHT22;46694;54.382;9.708;2023-03-03T02:45:32;2.20;99.90
60860;DHT22;46694;54.382;9.708;2023-03-03T02:48:11;2.20;99.90
60860;DHT22;46694;54.382;9.708;2023-03-03T02:50:51;2.20;99.90
60860;DHT22;46694;54.382;9.708;2023-03-03T02:53:30;2.20;99.90
60860;DHT22;46694;54.382;9.708;2023-03-03T02:56:10;2.20;99.90
60860;DHT22;46694;54.382;9.708;2023-03-03T02:58:50;2.20;99.90
60860;DHT22;46694;54.382;9.708;2023-03-03T03:01:30;2.20;99.90
60860;DHT22;46694;54.382;9.708;2023-03-03T03:04:16;2.20;99.90
60860;DHT22;46694;54.382;9.708;2023-03-03T03:07:00;2.20;99.90
60860;DHT22;46694;54.382;9.708;2023-03-03T03:09:39;2.20;99.90
60860;DHT22;46694;54.382;9.708;2023-03-03T03:12:19;2.20;99.90
60860;DHT22;46694;54.382;9.708;2023-03-03T03:14:59;2.20;99.90
60860;DHT22;46694;54.382;9.708;2023-03-03T03:17:39;2.20;99.90
60860;DHT22;46694;54.382;9.708;2023-03-03T03:20:18;2.10;99.90
60860;DHT22;46694;54.382;9.708;2023-03-03T03:22:58;2.10;99.90
60860;DHT22;46694;54.382;9.708;2023-03-03T03:25:40;2.10;99.90
60860;DHT22;46694;54.382;9.708;2023-03-03T03:28:25;2.10;99.90
60860;DHT22;46694;54.382;9.708;2023-03-03T03:31:06;2.10;99.90
60860;DHT22;46694;54.382;9.708;2023-03-03T03:33:46;2.10;99.90
60860;DHT22;46694;54.382;9.708;2023-03-03T03:36:26;2.00;99.90
60860;DHT22;46694;54.382;9.708;2023-03-03T03:39:06;2.00;99.90
60860;DHT22;46694;54.382;9.708;2023-03-03T03:41:45;2.00;99.90
60860;DHT22;46694;54.382;9.708;2023-03-03T03:44:25;2.00;99.90
60860;DHT22;46694;54.382;9.708;2023-03-03T03:47:04;2.00;99.90
60860;DHT22;46694;54.382;9.708;2023-03-03T03:49:44;2.00;99.90
60860;DHT22;46694;54.382;9.708;2023-03-03T03:52:23;2.00;99.90
60860;DHT22;46694;54.382;9.708;2023-03-03T03:55:03;2.00;99.90
60860;DHT22;46694;54.382;9.708;2023-03-03T03:57:43;2.00;99.90
60860;DHT22;46694;54.382;9.708;2023-03-03T04:00:24;2.00;99.90
60860;DHT22;46694;54.382;9.708;2023-03-03T04:03:03;2.00;99.90
60860;DHT22;46694;54.382;9.708;2023-03-03T04:05:43;1.90;99.90
60860;DHT22;46694;54.382;9.708;2023-03-03T04:08:22;1.90;99.90
60860;DHT22;46694;54.382;9.708;2023-03-03T04:11:02;1.90;99.90
60860;DHT22;46694;54.382;9.708;2023-03-03T04:13:42;1.90;99.90
60860;DHT22;46694;54.382;9.708;2023-03-03T04:16:21;1.90;99.90
60860;DHT22;46694;54.382;9.708;2023-03-03T04:19:01;2.00;99.90
60860;DHT22;46694;54.382;9.708;2023-03-03T04:21:40;2.00;99.90
60860;DHT22;46694;54.382;9.708;2023-03-03T04:24:20;2.00;99.90
60860;DHT22;46694;54.382;9.708;2023-03-03T04:27:00;2.10;99.90
60860;DHT22;46694;54.382;9.708;2023-03-03T04:29:40;2.10;99.90
60860;DHT22;46694;54.382;9.708;2023-03-03T04:32:20;2.10;99.90
60860;DHT22;46694;54.382;9.708;2023-03-03T04:35:00;2.10;99.90
60860;DHT22;46694;54.382;9.708;2023-03-03T04:37:40;2.10;99.90
60860;DHT22;46694;54.382;9.708;2023-03-03T04:40:19;2.20;99.90
60860;DHT22;46694;54.382;9.708;2023-03-03T04:42:59;2.20;99.90
60860;DHT22;46694;54.382;9.708;2023-03-03T04:45:38;2.20;99.90
60860;DHT22;46694;54.382;9.708;2023-03-03T04:48:18;2.20;99.90
60860;DHT22;46694;54.382;9.708;2023-03-03T04:50:57;2.20;99.90
60860;DHT22;46694;54.382;9.708;2023-03-03T04:53:37;2.20;99.90
60860;DHT22;46694;54.382;9.708;2023-03-03T04:56:17;2.20;99.90
60860;DHT22;46694;54.382;9.708;2023-03-03T04:58:57;2.20;99.90
60860;DHT22;46694;54.382;9.708;2023-03-03T05:01:36;2.20;99.90
60860;DHT22;46694;54.382;9.708;2023-03-03T05:04:16;2.20;99.90
60860;DHT22;46694;54.382;9.708;2023-03-03T05:06:56;2.20;99.90
60860;DHT22;46694;54.382;9.708;2023-03-03T05:09:35;2.30;99.90
60860;DHT22;46694;54.382;9.708;2023-03-03T05:12:15;2.30;99.90
60860;DHT22;46694;54.382;9.708;2023-03-03T05:14:55;2.30;99.90
60860;DHT22;46694;54.382;9.708;2023-03-03T05:17:35;2.30;99.90
60860;DHT22;46694;54.382;9.708;2023-03-03T05:20:15;2.30;99.90
60860;DHT22;46694;54.382;9.708;2023-03-03T05:22:54;2.20;99.90
60860;DHT22;46694;54.382;9.708;2023-03-03T05:25:50;2.10;99.90
60860;DHT22;46694;54.382;9.708;2023-03-03T05:28:30;2.10;99.90
60860;DHT22;46694;54.382;9.708;2023-03-03T05:31:09;2.00;99.90
60860;DHT22;46694;54.382;9.708;2023-03-03T05:33:49;2.00;99.90
60860;DHT22;46694;54.382;9.708;2023-03-03T05:36:29;2.00;99.90
60860;DHT22;46694;54.382;9.708;2023-03-03T05:39:08;1.90;99.90
60860;DHT22;46694;54.382;9.708;2023-03-03T05:41:48;1.90;99.90
60860;DHT22;46694;54.382;9.708;2023-03-03T05:44:28;1.90;99.90
60860;DHT22;46694;54.382;9.708;2023-03-03T05:47:08;1.80;99.90
60860;DHT22;46694;54.382;9.708;2023-03-03T05:49:48;1.80;99.90
60860;DHT22;46694;54.382;9.708;2023-03-03T05:52:27;1.80;99.90
60860;DHT22;46694;54.382;9.708;2023-03-03T05:55:08;1.70;99.90
60860;DHT22;46694;54.382;9.708;2023-03-03T05:57:48;1.70;99.90
60860;DHT22;46694;54.382;9.708;2023-03-03T06:00:27;1.70;99.90
60860;DHT22;46694;54.382;9.708;2023-03-03T06:03:06;1.70;99.90
60860;DHT22;46694;54.382;9.708;2023-03-03T06:05:46;1.70;99.90
60860;DHT22;46694;54.382;9.708;2023-03-03T06:08:26;1.60;99.90
60860;DHT22;46694;54.382;9.708;2023-03-03T06:11:05;1.60;99.90
60860;DHT22;46694;54.382;9.708;2023-03-03T06:13:45;1.60;99.90
60860;DHT22;46694;54.382;9.708;2023-03-03T06:16:24;1.50;99.90
60860;DHT22;46694;54.382;9.708;2023-03-03T06:19:04;1.50;99.90
60860;DHT22;46694;54.382;9.708;2023-03-03T06:21:43;1.50;99.90
60860;DHT22;46694;54.382;9.708;2023-03-03T06:24:23;1.50;99.90
60860;DHT22;46694;54.382;9.708;2023-03-03T06:27:04;1.50;99.90
60860;DHT22;46694;54.382;9.708;2023-03-03T06:29:44;1.50;99.90
60860;DHT22;46694;54.382;9.708;2023-03-03T06:32:24;1.60;99.90
60860;DHT22;46694;54.382;9.708;2023-03-03T06:35:03;1.60;99.90
60860;DHT22;46694;54.382;9.708;2023-03-03T06:37:43;1.60;99.90
60860;DHT22;46694;54.382;9.708;2023-03-03T06:40:22;1.60;99.90
60860;DHT22;46694;54.382;9.708;2023-03-03T06:43:02;1.60;99.90
60860;DHT22;46694;54.382;9.708;2023-03-03T06:45:44;1.60;99.90
60860;DHT22;46694;54.382;9.708;2023-03-03T06:48:24;1.60;99.90
60860;DHT22;46694;54.382;9.708;2023-03-03T06:51:21;1.60;99.90
60860;DHT22;46694;54.382;9.708;2023-03-03T06:56:58;1.70;99.90
60860;DHT22;46694;54.382;9.708;2023-03-03T06:59:40;1.70;99.90
60860;DHT22;46694;54.382;9.708;2023-03-03T07:02:20;1.70;99.90
60860;DHT22;46694;54.382;9.708;2023-03-03T07:05:00;1.80;99.90
60860;DHT22;46694;54.382;9.708;2023-03-03T07:07:40;1.80;99.90
60860;DHT22;46694;54.382;9.708;2023-03-03T07:10:23;1.80;99.90
60860;DHT22;46694;54.382;9.708;2023-03-03T07:13:24;1.80;99.90
60860;DHT22;46694;54.382;9.708;2023-03-03T07:16:11;1.90;99.90
60860;DHT22;46694;54.382;9.708;2023-03-03T07:22:26;2.00;99.90
60860;DHT22;46694;54.382;9.708;2023-03-03T07:25:19;2.10;99.90
60860;DHT22;46694;54.382;9.708;2023-03-03T07:28:25;2.20;99.90
60860;DHT22;46694;54.382;9.708;2023-03-03T07:31:22;2.20;99.90
60860;DHT22;46694;54.382;9.708;2023-03-03T07:34:29;2.30;99.90
60860;DHT22;46694;54.382;9.708;2023-03-03T07:37:34;2.40;99.90
60860;DHT22;46694;54.382;9.708;2023-03-03T07:40:35;2.50;99.90
60860;DHT22;46694;54.382;9.708;2023-03-03T07:43:39;2.60;99.90
60860;DHT22;46694;54.382;9.708;2023-03-03T07:52:30;3.20;99.90
60860;DHT22;46694;54.382;9.708;2023-03-03T07:55:34;3.40;99.90
60860;DHT22;46694;54.382;9.708;2023-03-03T07:58:32;3.50;99.90
60860;DHT22;46694;54.382;9.708;2023-03-03T08:04:19;3.70;99.90
60860;DHT22;46694;54.382;9.708;2023-03-03T08:07:01;3.90;99.90
60860;DHT22;46694;54.382;9.708;2023-03-03T08:09:48;4.10;99.90
60860;DHT22;46694;54.382;9.708;2023-03-03T08:12:38;4.30;99.90
60860;DHT22;46694;54.382;9.708;2023-03-03T08:15:25;4.60;99.90
60860;DHT22;46694;54.382;9.708;2023-03-03T08:18:22;4.90;99.90
60860;DHT22;46694;54.382;9.708;2023-03-03T08:21:18;5.10;99.90
60860;DHT22;46694;54.382;9.708;2023-03-03T08:24:00;5.30;99.90
60860;DHT22;46694;54.382;9.708;2023-03-03T08:26:40;5.50;99.90
60860;DHT22;46694;54.382;9.708;2023-03-03T08:29:19;5.60;99.90
60860;DHT22;46694;54.382;9.708;2023-03-03T08:31:59;5.60;99.90
60860;DHT22;46694;54.382;9.708;2023-03-03T08:34:38;5.70;99.90
60860;DHT22;46694;54.382;9.708;2023-03-03T08:37:18;5.70;99.90
60860;DHT22;46694;54.382;9.708;2023-03-03T08:39:58;5.70;99.90
60860;DHT22;46694;54.382;9.708;2023-03-03T08:42:37;5.60;99.90
60860;DHT22;46694;54.382;9.708;2023-03-03T08:45:17;5.70;99.90
60860;DHT22;46694;54.382;9.708;2023-03-03T08:47:56;5.80;99.90
60860;DHT22;46694;54.382;9.708;2023-03-03T08:50:38;5.90;99.90
60860;DHT22;46694;54.382;9.708;2023-03-03T08:53:19;6.10;99.90
60860;DHT22;46694;54.382;9.708;2023-03-03T08:55:59;6.10;99.90
60860;DHT22;46694;54.382;9.708;2023-03-03T08:58:39;6.20;99.90
60860;DHT22;46694;54.382;9.708;2023-03-03T09:01:20;6.30;99.90
60860;DHT22;46694;54.382;9.708;2023-03-03T09:03:59;6.40;99.90
60860;DHT22;46694;54.382;9.708;2023-03-03T09:06:39;6.60;99.90
60860;DHT22;46694;54.382;9.708;2023-03-03T09:09:18;6.70;99.90
60860;DHT22;46694;54.382;9.708;2023-03-03T09:12:02;6.80;99.90
60860;DHT22;46694;54.382;9.708;2023-03-03T09:14:57;6.90;99.90
60860;DHT22;46694;54.382;9.708;2023-03-03T09:17:38;7.10;99.90
60860;DHT22;46694;54.382;9.708;2023-03-03T09:23:41;7.30;99.90
60860;DHT22;46694;54.382;9.708;2023-03-03T09:29:18;7.40;99.90
60860;DHT22;46694;54.382;9.708;2023-03-03T09:35:39;7.30;99.90
60860;DHT22;46694;54.382;9.708;2023-03-03T09:38:31;7.30;99.90
60860;DHT22;46694;54.382;9.708;2023-03-03T09:47:17;7.50;99.90
60860;DHT22;46694;54.382;9.708;2023-03-03T09:57:22;7.20;99.90
60860;DHT22;46694;54.382;9.708;2023-03-03T10:00:23;7.10;99.90
60860;DHT22;46694;54.382;9.708;2023-03-03T10:10:05;7.20;99.90
60860;DHT22;46694;54.382;9.708;2023-03-03T10:13:43;7.20;99.90
60860;DHT22;46694;54.382;9.708;2023-03-03T10:25:44;7.40;99.90
60860;DHT22;46694;54.382;9.708;2023-03-03T10:32:00;7.50;99.90
60860;DHT22;46694;54.382;9.708;2023-03-03T10:35:07;7.40;99.90
60860;DHT22;46694;54.382;9.708;2023-03-03T10:44:48;7.60;99.90
60860;DHT22;46694;54.382;9.708;2023-03-03T10:57:37;7.60;99.90
60860;DHT22;46694;54.382;9.708;2023-03-03T11:03:57;7.60;99.90
60860;DHT22;46694;54.382;9.708;2023-03-03T11:19:52;7.40;99.90
60860;DHT22;46694;54.382;9.708;2023-03-03T11:22:52;7.50;99.90
60860;DHT22;46694;54.382;9.708;2023-03-03T11:29:19;7.70;99.90
60860;DHT22;46694;54.382;9.708;2023-03-03T11:32:15;7.70;99.90
60860;DHT22;46694;54.382;9.708;2023-03-03T11:35:25;7.80;99.90
60860;DHT22;46694;54.382;9.708;2023-03-03T11:47:41;8.00;99.90
60860;DHT22;46694;54.382;9.708;2023-03-03T11:50:32;8.20;99.90
60860;DHT22;46694;54.382;9.708;2023-03-03T11:56:21;8.10;99.90
60860;DHT22;46694;54.382;9.708;2023-03-03T12:30:16;8.40;99.90
60860;DHT22;46694;54.382;9.708;2023-03-03T12:33:15;8.50;99.90
60860;DHT22;46694;54.382;9.708;2023-03-03T12:36:21;8.50;99.90
60860;DHT22;46694;54.382;9.708;2023-03-03T12:49:34;8.30;99.90
60860;DHT22;46694;54.382;9.708;2023-03-03T12:52:44;8.20;99.90
60860;DHT22;46694;54.382;9.708;2023-03-03T12:58:36;8.30;99.90
60860;DHT22;46694;54.382;9.708;2023-03-03T13:02:18;8.30;99.90
60860;DHT22;46694;54.382;9.708;2023-03-03T13:04:56;8.40;99.90
60860;DHT22;46694;54.382;9.708;2023-03-03T13:07:52;8.40;99.90
60860;DHT22;46694;54.382;9.708;2023-03-03T13:17:08;8.30;99.90
60860;DHT22;46694;54.382;9.708;2023-03-03T13:26:54;8.20;99.90
60860;DHT22;46694;54.382;9.708;2023-03-03T13:29:42;8.30;99.90
60860;DHT22;46694;54.382;9.708;2023-03-03T13:32:32;8.30;99.90
60860;DHT22;46694;54.382;9.708;2023-03-03T13:38:33;8.30;99.90
60860;DHT22;46694;54.382;9.708;2023-03-03T13:53:35;8.10;99.90
60860;DHT22;46694;54.382;9.708;2023-03-03T14:20:53;7.80;99.90
60860;DHT22;46694;54.382;9.708;2023-03-03T14:26:51;7.80;99.90
60860;DHT22;46694;54.382;9.708;2023-03-03T14:29:34;7.70;99.90
60860;DHT22;46694;54.382;9.708;2023-03-03T14:32:25;7.70;99.90
60860;DHT22;46694;54.382;9.708;2023-03-03T14:35:14;7.60;99.90
60860;DHT22;46694;54.382;9.708;2023-03-03T14:38:05;7.70;99.90
60860;DHT22;46694;54.382;9.708;2023-03-03T14:40:48;7.70;99.90
60860;DHT22;46694;54.382;9.708;2023-03-03T14:43:56;7.70;99.90
60860;DHT22;46694;54.382;9.708;2023-03-03T14:46:38;7.60;99.90
60860;DHT22;46694;54.382;9.708;2023-03-03T14:49:29;7.60;99.90
60860;DHT22;46694;54.382;9.708;2023-03-03T14:54:57;7.50;99.90
60860;DHT22;46694;54.382;9.708;2023-03-03T14:57:41;7.40;99.90
60860;DHT22;46694;54.382;9.708;2023-03-03T15:00:26;7.40;99.90
60860;DHT22;46694;54.382;9.708;2023-03-03T15:03:27;7.30;99.90
60860;DHT22;46694;54.382;9.708;2023-03-03T15:06:11;7.30;99.90
60860;DHT22;46694;54.382;9.708;2023-03-03T15:08:51;7.30;99.90
60860;DHT22;46694;54.382;9.708;2023-03-03T15:11:32;7.30;99.90
60860;DHT22;46694;54.382;9.708;2023-03-03T15:14:16;7.30;99.90
60860;DHT22;46694;54.382;9.708;2023-03-03T15:20:34;7.20;99.90
60860;DHT22;46694;54.382;9.708;2023-03-03T15:32:26;7.10;99.90
60860;DHT22;46694;54.382;9.708;2023-03-03T15:41:44;7.10;99.90
60860;DHT22;46694;54.382;9.708;2023-03-03T15:44:56;7.10;99.90
60860;DHT22;46694;54.382;9.708;2023-03-03T15:50:57;7.00;99.90
60860;DHT22;46694;54.382;9.708;2023-03-03T15:57:03;7.00;99.90
60860;DHT22;46694;54.382;9.708;2023-03-03T16:00:29;7.00;99.90
60860;DHT22;46694;54.382;9.708;2023-03-03T16:03:18;7.00;99.90
60860;DHT22;46694;54.382;9.708;2023-03-03T16:15:43;6.80;99.90
60860;DHT22;46694;54.382;9.708;2023-03-03T16:19:10;6.80;99.90
60860;DHT22;46694;54.382;9.708;2023-03-03T16:25:16;6.70;99.90
60860;DHT22;46694;54.382;9.708;2023-03-03T16:28:18;6.70;99.90
60860;DHT22;46694;54.382;9.708;2023-03-03T16:31:26;6.70;99.90
60860;DHT22;46694;54.382;9.708;2023-03-03T16:37:26;6.50;99.90
60860;DHT22;46694;54.382;9.708;2023-03-03T16:40:16;6.50;99.90
60860;DHT22;46694;54.382;9.708;2023-03-03T16:46:41;6.40;99.90
60860;DHT22;46694;54.382;9.708;2023-03-03T16:59:15;6.20;99.90
60860;DHT22;46694;54.382;9.708;2023-03-03T17:21:28;5.80;99.90
60860;DHT22;46694;54.382;9.708;2023-03-03T17:34:08;5.70;99.90
60860;DHT22;46694;54.382;9.708;2023-03-03T17:40:29;5.70;99.90
60860;DHT22;46694;54.382;9.708;2023-03-03T17:46:55;5.60;99.90
60860;DHT22;46694;54.382;9.708;2023-03-03T18:11:18;5.50;99.90
60860;DHT22;46694;54.382;9.708;2023-03-03T18:20:42;5.40;99.90
60860;DHT22;46694;54.382;9.708;2023-03-03T18:23:36;5.40;99.90
60860;DHT22;46694;54.382;9.708;2023-03-03T18:26:36;5.40;99.90
60860;DHT22;46694;54.382;9.708;2023-03-03T18:29:24;5.30;99.90
60860;DHT22;46694;54.382;9.708;2023-03-03T18:32:20;5.30;99.90
60860;DHT22;46694;54.382;9.708;2023-03-03T18:35:36;5.30;99.90
60860;DHT22;46694;54.382;9.708;2023-03-03T18:38:26;5.20;99.90
60860;DHT22;46694;54.382;9.708;2023-03-03T18:41:11;5.20;99.90
60860;DHT22;46694;54.382;9.708;2023-03-03T18:44:28;5.20;99.90
60860;DHT22;46694;54.382;9.708;2023-03-03T18:47:09;5.20;99.90
60860;DHT22;46694;54.382;9.708;2023-03-03T18:50:15;5.10;99.90
60860;DHT22;46694;54.382;9.708;2023-03-03T18:53:28;5.10;99.90
60860;DHT22;46694;54.382;9.708;2023-03-03T18:56:10;5.10;99.90
60860;DHT22;46694;54.382;9.708;2023-03-03T18:58:50;5.00;99.90
60860;DHT22;46694;54.382;9.708;2023-03-03T19:09:50;4.90;99.90
60860;DHT22;46694;54.382;9.708;2023-03-03T19:12:51;4.90;99.90
60860;DHT22;46694;54.382;9.708;2023-03-03T19:18:23;4.90;99.90
60860;DHT22;46694;54.382;9.708;2023-03-03T19:21:21;4.80;99.90
60860;DHT22;46694;54.382;9.708;2023-03-03T19:27:19;4.80;99.90
60860;DHT22;46694;54.382;9.708;2023-03-03T19:36:20;4.70;99.90
60860;DHT22;46694;54.382;9.708;2023-03-03T19:42:40;4.70;99.90
60860;DHT22;46694;54.382;9.708;2023-03-03T19:45:47;4.60;99.90
60860;DHT22;46694;54.382;9.708;2023-03-03T19:48:39;4.60;99.90
60860;DHT22;46694;54.382;9.708;2023-03-03T19:52:04;4.60;99.90
60860;DHT22;46694;54.382;9.708;2023-03-03T19:54:47;4.60;99.90
60860;DHT22;46694;54.382;9.708;2023-03-03T19:57:43;4.60;99.90
60860;DHT22;46694;54.382;9.708;2023-03-03T20:16:38;4.50;99.90
60860;DHT22;46694;54.382;9.708;2023-03-03T20:19:58;4.50;99.90
60860;DHT22;46694;54.382;9.708;2023-03-03T20:23:14;4.40;99.90
60860;DHT22;46694;54.382;9.708;2023-03-03T20:26:24;4.40;99.90
60860;DHT22;46694;54.382;9.708;2023-03-03T20:29:25;4.40;99.90
60860;DHT22;46694;54.382;9.708;2023-03-03T20:38:08;4.40;99.90
60860;DHT22;46694;54.382;9.708;2023-03-03T20:41:00;4.40;99.90
60860;DHT22;46694;54.382;9.708;2023-03-03T20:47:12;4.40;99.90
60860;DHT22;46694;54.382;9.708;2023-03-03T20:59:23;4.30;99.90
60860;DHT22;46694;54.382;9.708;2023-03-03T21:05:16;4.40;99.90
60860;DHT22;46694;54.382;9.708;2023-03-03T21:07:58;4.50;99.90
60860;DHT22;46694;54.382;9.708;2023-03-03T21:10:55;4.50;99.90
60860;DHT22;46694;54.382;9.708;2023-03-03T21:13:44;4.50;99.90
60860;DHT22;46694;54.382;9.708;2023-03-03T21:19:08;4.60;99.90
60860;DHT22;46694;54.382;9.708;2023-03-03T21:21:49;4.70;99.90
60860;DHT22;46694;54.382;9.708;2023-03-03T21:24:49;4.70;99.90
60860;DHT22;46694;54.382;9.708;2023-03-03T21:27:34;4.80;99.90
60860;DHT22;46694;54.382;9.708;2023-03-03T21:30:16;4.90;99.90
60860;DHT22;46694;54.382;9.708;2023-03-03T21:32:56;5.00;99.90
60860;DHT22;46694;54.382;9.708;2023-03-03T21:35:58;5.00;99.90
60860;DHT22;46694;54.382;9.708;2023-03-03T21:38:38;5.10;99.90
60860;DHT22;46694;54.382;9.708;2023-03-03T21:41:18;5.20;99.90
60860;DHT22;46694;54.382;9.708;2023-03-03T21:43:58;5.20;99.90
60860;DHT22;46694;54.382;9.708;2023-03-03T21:46:40;5.20;99.90
60860;DHT22;46694;54.382;9.708;2023-03-03T21:49:20;5.30;99.90
60860;DHT22;46694;54.382;9.708;2023-03-03T21:52:00;5.40;99.90
60860;DHT22;46694;54.382;9.708;2023-03-03T21:54:44;5.40;99.90
60860;DHT22;46694;54.382;9.708;2023-03-03T21:57:24;5.50;99.90
60860;DHT22;46694;54.382;9.708;2023-03-03T22:00:09;5.50;99.90
60860;DHT22;46694;54.382;9.708;2023-03-03T22:02:49;5.60;99.90
60860;DHT22;46694;54.382;9.708;2023-03-03T22:05:29;5.60;99.90
60860;DHT22;46694;54.382;9.708;2023-03-03T22:08:08;5.60;99.90
60860;DHT22;46694;54.382;9.708;2023-03-03T22:10:49;5.70;99.90
60860;DHT22;46694;54.382;9.708;2023-03-03T22:13:31;5.70;99.90
60860;DHT22;46694;54.382;9.708;2023-03-03T22:16:11;5.70;99.90
60860;DHT22;46694;54.382;9.708;2023-03-03T22:18:50;5.70;99.90
60860;DHT22;46694;54.382;9.708;2023-03-03T22:21:30;5.70;99.90
60860;DHT22;46694;54.382;9.708;2023-03-03T22:24:10;5.80;99.90
60860;DHT22;46694;54.382;9.708;2023-03-03T22:26:49;5.80;99.90
60860;DHT22;46694;54.382;9.708;2023-03-03T22:29:28;5.80;99.90
60860;DHT22;46694;54.382;9.708;2023-03-03T22:32:08;5.80;99.90
60860;DHT22;46694;54.382;9.708;2023-03-03T22:34:47;5.90;99.90
60860;DHT22;46694;54.382;9.708;2023-03-03T22:37:27;5.90;99.90
60860;DHT22;46694;54.382;9.708;2023-03-03T22:40:07;5.90;99.90
60860;DHT22;46694;54.382;9.708;2023-03-03T22:42:47;5.90;99.90
60860;DHT22;46694;54.382;9.708;2023-03-03T22:45:27;6.00;99.90
60860;DHT22;46694;54.382;9.708;2023-03-03T22:48:07;6.00;99.90
60860;DHT22;46694;54.382;9.708;2023-03-03T22:50:46;6.00;99.90
60860;DHT22;46694;54.382;9.708;2023-03-03T22:53:26;6.00;99.90
60860;DHT22;46694;54.382;9.708;2023-03-03T22:56:06;6.10;99.90
60860;DHT22;46694;54.382;9.708;2023-03-03T22:58:45;6.10;99.90
60860;DHT22;46694;54.382;9.708;2023-03-03T23:01:25;6.10;99.90
60860;DHT22;46694;54.382;9.708;2023-03-03T23:04:04;6.10;99.90
60860;DHT22;46694;54.382;9.708;2023-03-03T23:06:44;6.10;99.90
60860;DHT22;46694;54.382;9.708;2023-03-03T23:09:23;6.20;99.90
60860;DHT22;46694;54.382;9.708;2023-03-03T23:12:03;6.20;99.90
60860;DHT22;46694;54.382;9.708;2023-03-03T23:14:43;6.20;99.90
60860;DHT22;46694;54.382;9.708;2023-03-03T23:17:22;6.20;99.90
60860;DHT22;46694;54.382;9.708;2023-03-03T23:20:02;6.20;99.90
60860;DHT22;46694;54.382;9.708;2023-03-03T23:22:42;6.20;99.90
60860;DHT22;46694;54.382;9.708;2023-03-03T23:25:22;6.30;99.90
60860;DHT22;46694;54.382;9.708;2023-03-03T23:28:02;6.30;99.90
60860;DHT22;46694;54.382;9.708;2023-03-03T23:30:41;6.20;99.90
60860;DHT22;46694;54.382;9.708;2023-03-03T23:33:21;6.30;99.90
60860;DHT22;46694;54.382;9.708;2023-03-03T23:36:01;6.30;99.90
60860;DHT22;46694;54.382;9.708;2023-03-03T23:38:40;6.30;99.90
60860;DHT22;46694;54.382;9.708;2023-03-03T23:41:20;6.30;99.90
60860;DHT22;46694;54.382;9.708;2023-03-03T23:44:03;6.30;99.90
60860;DHT22;46694;54.382;9.708;2023-03-03T23:46:42;6.30;99.90
60860;DHT22;46694;54.382;9.708;2023-03-03T23:49:21;6.30;99.90
60860;DHT22;46694;54.382;9.708;2023-03-03T23:52:01;6.30;99.90
60860;DHT22;46694;54.382;9.708;2023-03-03T23:54:41;6.30;99.90
60860;DHT22;46694;54.382;9.708;2023-03-03T23:57:20;6.30;99.90
